createdAt,value
2018-11-07T00:01:54.876Z,9.10
2018-11-07T00:04:02.750Z,9.10
2018-11-07T00:06:16.755Z,9.10
2018-11-07T00:08:27.231Z,9.10
2018-11-07T00:10:38.316Z,9.20
2018-11-07T00:12:47.230Z,9.20
2018-11-07T00:14:59.291Z,9.20
2018-11-07T00:17:10.536Z,9.20
2018-11-07T00:21:35.334Z,9.20
2018-11-07T00:23:41.975Z,9.20
2018-11-07T00:25:46.200Z,9.20
2018-11-07T00:27:50.407Z,9.10
2018-11-07T00:29:54.611Z,9.10
2018-11-07T00:31:58.810Z,9.10
2018-11-07T00:34:03.161Z,9.10
2018-11-07T00:36:07.515Z,9.10
2018-11-07T00:38:11.766Z,9.10
2018-11-07T00:40:16.090Z,9.10
2018-11-07T00:42:20.419Z,9.10
2018-11-07T00:44:25.252Z,9.10
2018-11-07T00:46:29.556Z,9.10
2018-11-07T00:48:33.833Z,9.10
2018-11-07T00:50:38.088Z,9.10
2018-11-07T00:52:42.933Z,9.20
2018-11-07T00:54:47.144Z,9.20
2018-11-07T00:56:51.409Z,9.20
2018-11-07T00:58:56.729Z,9.20
2018-11-07T01:01:01.060Z,9.10
2018-11-07T01:03:05.358Z,9.20
2018-11-07T01:05:11.327Z,9.10
2018-11-07T01:07:15.558Z,9.10
2018-11-07T01:09:19.926Z,9.10
2018-11-07T01:11:24.104Z,9.10
2018-11-07T01:13:28.340Z,9.20
2018-11-07T01:15:32.597Z,9.20
2018-11-07T01:17:36.859Z,9.30
2018-11-07T01:19:41.048Z,9.20
2018-11-07T01:21:45.344Z,9.20
2018-11-07T01:23:49.677Z,9.30
2018-11-07T01:25:54.024Z,9.30
2018-11-07T01:27:58.323Z,9.20
2018-11-07T01:30:02.643Z,9.30
2018-11-07T01:32:06.995Z,9.30
2018-11-07T01:34:11.256Z,9.30
2018-11-07T01:36:15.480Z,9.30
2018-11-07T01:38:19.802Z,9.20
2018-11-07T01:40:24.085Z,9.20
2018-11-07T01:42:28.337Z,9.20
2018-11-07T01:44:32.546Z,9.10
2018-11-07T01:46:36.846Z,9.20
2018-11-07T01:48:41.245Z,9.10
2018-11-07T01:50:45.489Z,9.10
2018-11-07T01:52:49.787Z,9.10
2018-11-07T01:54:54.144Z,9.00
2018-11-07T01:56:58.419Z,9.00
2018-11-07T01:59:02.745Z,9.10
2018-11-07T02:01:07.593Z,9.00
2018-11-07T02:03:11.811Z,9.00
2018-11-07T02:05:16.136Z,9.00
2018-11-07T02:07:20.362Z,8.90
2018-11-07T02:09:24.604Z,9.00
2018-11-07T02:11:28.977Z,8.90
2018-11-07T02:13:33.293Z,8.90
2018-11-07T02:15:37.658Z,8.90
2018-11-07T02:17:41.945Z,8.90
2018-11-07T02:19:46.166Z,8.90
2018-11-07T02:21:50.376Z,8.80
2018-11-07T02:23:54.803Z,8.80
2018-11-07T02:25:59.027Z,8.80
2018-11-07T02:28:03.338Z,8.80
2018-11-07T02:30:10.154Z,8.90
2018-11-07T02:32:14.621Z,8.90
2018-11-07T02:34:18.886Z,8.80
2018-11-07T02:36:23.180Z,8.80
2018-11-07T02:38:27.391Z,8.80
2018-11-07T02:40:31.629Z,8.80
2018-11-07T02:42:35.881Z,8.80
2018-11-07T02:44:40.144Z,8.70
2018-11-07T02:46:44.429Z,8.70
2018-11-07T02:48:48.652Z,8.70
2018-11-07T02:50:52.883Z,8.60
2018-11-07T02:52:57.120Z,8.60
2018-11-07T02:55:01.394Z,8.60
2018-11-07T02:57:05.721Z,8.50
2018-11-07T02:59:09.999Z,8.50
2018-11-07T03:01:14.311Z,8.50
2018-11-07T03:03:18.553Z,8.50
2018-11-07T03:05:22.735Z,8.40
2018-11-07T03:07:26.956Z,8.40
2018-11-07T03:09:31.137Z,8.40
2018-11-07T03:11:35.457Z,8.40
2018-11-07T03:13:39.651Z,8.30
2018-11-07T03:15:43.976Z,8.40
2018-11-07T03:17:48.317Z,8.40
2018-11-07T03:19:52.556Z,8.30
2018-11-07T03:21:56.832Z,8.40
2018-11-07T03:24:01.072Z,8.40
2018-11-07T03:26:05.393Z,8.30
2018-11-07T03:28:09.672Z,8.40
2018-11-07T03:30:13.945Z,8.30
2018-11-07T03:32:18.272Z,8.40
2018-11-07T03:34:22.586Z,8.30
2018-11-07T03:36:26.791Z,8.30
2018-11-07T03:38:31.473Z,8.40
2018-11-07T03:40:35.933Z,8.40
2018-11-07T03:42:41.275Z,8.40
2018-11-07T03:44:46.262Z,8.40
2018-11-07T03:46:51.039Z,8.40
2018-11-07T03:48:55.966Z,8.30
2018-11-07T03:51:01.264Z,8.30
2018-11-07T03:53:05.722Z,8.30
2018-11-07T03:55:11.075Z,8.30
2018-11-07T03:57:15.907Z,8.30
2018-11-07T03:59:20.656Z,8.40
2018-11-07T04:01:25.462Z,8.40
2018-11-07T04:03:30.197Z,8.40
2018-11-07T04:05:34.828Z,8.40
2018-11-07T04:07:39.430Z,8.40
2018-11-07T04:09:43.733Z,8.40
2018-11-07T04:11:47.950Z,8.30
2018-11-07T04:13:52.170Z,8.40
2018-11-07T04:15:56.391Z,8.30
2018-11-07T04:18:00.747Z,8.40
2018-11-07T04:20:05.983Z,8.40
2018-11-07T04:22:10.246Z,8.30
2018-11-07T04:24:14.563Z,8.30
2018-11-07T04:26:18.840Z,8.30
2018-11-07T04:28:23.149Z,8.30
2018-11-07T04:30:27.398Z,8.30
2018-11-07T04:32:31.656Z,8.30
2018-11-07T04:34:35.923Z,8.30
2018-11-07T04:36:40.115Z,8.20
2018-11-07T04:38:44.584Z,8.20
2018-11-07T04:40:48.877Z,8.20
2018-11-07T04:42:53.267Z,8.20
2018-11-07T04:44:57.560Z,8.20
2018-11-07T04:47:01.913Z,8.20
2018-11-07T04:49:06.224Z,8.30
2018-11-07T04:51:11.505Z,8.30
2018-11-07T04:53:15.720Z,8.30
2018-11-07T04:55:19.970Z,8.40
2018-11-07T04:57:24.260Z,8.40
2018-11-07T04:59:28.531Z,8.40
2018-11-07T05:01:32.757Z,8.50
2018-11-07T05:03:37.235Z,8.50
2018-11-07T05:05:41.573Z,8.50
2018-11-07T05:07:45.860Z,8.70
2018-11-07T05:09:50.098Z,8.80
2018-11-07T05:11:54.335Z,8.80
2018-11-07T05:13:58.544Z,8.80
2018-11-07T05:16:02.765Z,8.90
2018-11-07T05:18:07.030Z,8.90
2018-11-07T05:20:12.148Z,8.90
2018-11-07T05:22:16.451Z,8.90
2018-11-07T05:24:20.709Z,8.90
2018-11-07T05:26:25.027Z,8.80
2018-11-07T05:28:29.426Z,8.80
2018-11-07T05:30:33.657Z,8.70
2018-11-07T05:32:37.942Z,8.60
2018-11-07T05:34:42.149Z,8.60
2018-11-07T05:36:46.370Z,8.40
2018-11-07T05:38:50.808Z,8.30
2018-11-07T05:40:55.059Z,8.20
2018-11-07T05:42:59.275Z,8.30
2018-11-07T05:45:03.890Z,8.20
2018-11-07T05:47:08.345Z,8.20
2018-11-07T05:49:13.009Z,8.10
2018-11-07T05:51:17.197Z,8.00
2018-11-07T05:53:21.412Z,7.90
2018-11-07T05:55:25.593Z,8.00
2018-11-07T05:57:38.204Z,7.90
2018-11-07T05:59:42.982Z,7.80
2018-11-07T06:01:47.242Z,7.80
2018-11-07T06:03:51.581Z,7.80
2018-11-07T06:05:56.635Z,7.80
2018-11-07T06:08:00.846Z,7.80
2018-11-07T06:10:06.398Z,7.90
2018-11-07T06:12:10.919Z,7.80
2018-11-07T06:14:15.966Z,7.80
2018-11-07T06:16:21.255Z,7.80
2018-11-07T06:18:26.035Z,7.80
2018-11-07T06:20:31.151Z,7.80
2018-11-07T06:22:35.489Z,7.80
2018-11-07T06:24:39.830Z,7.70
2018-11-07T06:26:44.082Z,7.70
2018-11-07T06:28:48.359Z,7.70
2018-11-07T06:30:52.784Z,7.70
2018-11-07T06:32:57.028Z,7.60
2018-11-07T06:35:01.414Z,7.60
2018-11-07T06:37:05.793Z,7.50
2018-11-07T06:39:11.139Z,7.50
2018-11-07T06:41:15.460Z,7.60
2018-11-07T06:43:19.736Z,7.60
2018-11-07T06:45:26.138Z,7.60
2018-11-07T06:47:30.469Z,7.70
2018-11-07T06:49:34.682Z,7.70
2018-11-07T06:51:38.875Z,7.70
2018-11-07T06:53:43.180Z,7.70
2018-11-07T06:55:47.532Z,7.70
2018-11-07T06:57:51.753Z,7.60
2018-11-07T06:59:55.945Z,7.60
2018-11-07T07:02:00.163Z,7.60
2018-11-07T07:04:04.517Z,7.60
2018-11-07T07:06:08.752Z,7.60
2018-11-07T07:08:13.027Z,7.50
2018-11-07T07:10:18.250Z,7.50
2018-11-07T07:12:22.482Z,7.50
2018-11-07T07:14:26.838Z,7.50
2018-11-07T07:16:31.106Z,7.50
2018-11-07T07:18:35.391Z,7.60
2018-11-07T07:20:39.839Z,7.60
2018-11-07T07:22:44.666Z,7.60
2018-11-07T07:24:48.849Z,7.50
2018-11-07T07:26:53.114Z,7.50
2018-11-07T07:28:57.385Z,7.60
2018-11-07T07:31:01.699Z,7.60
2018-11-07T07:33:06.063Z,7.60
2018-11-07T07:35:10.320Z,7.60
2018-11-07T07:37:14.632Z,7.60
2018-11-07T07:39:18.856Z,7.70
2018-11-07T07:41:23.099Z,7.70
2018-11-07T07:43:27.394Z,7.70
2018-11-07T07:45:31.693Z,7.70
2018-11-07T07:47:35.863Z,7.70
2018-11-07T07:49:40.084Z,7.70
2018-11-07T07:51:44.885Z,7.70
2018-11-07T07:53:49.145Z,7.70
2018-11-07T07:55:53.385Z,7.70
2018-11-07T07:57:57.697Z,7.70
2018-11-07T08:00:02.026Z,7.80
2018-11-07T08:02:07.031Z,7.90
2018-11-07T08:04:11.301Z,8.00
2018-11-07T08:06:15.653Z,8.10
2018-11-07T08:08:19.932Z,8.10
2018-11-07T08:10:24.179Z,8.20
2018-11-07T08:12:28.351Z,8.30
2018-11-07T08:14:32.578Z,8.30
2018-11-07T08:16:37.072Z,8.40
2018-11-07T08:18:41.294Z,8.50
2018-11-07T08:20:45.723Z,8.60
2018-11-07T08:22:50.307Z,8.70
2018-11-07T08:24:54.592Z,8.80
2018-11-07T08:27:03.521Z,8.80
2018-11-07T08:29:10.052Z,8.90
2018-11-07T08:31:15.989Z,8.90
2018-11-07T08:33:22.579Z,9.00
2018-11-07T08:35:28.294Z,9.00
2018-11-07T08:37:34.450Z,9.00
2018-11-07T08:39:38.728Z,9.00
2018-11-07T08:41:42.990Z,9.00
2018-11-07T08:43:47.211Z,9.10
2018-11-07T08:45:51.472Z,9.10
2018-11-07T08:47:56.002Z,9.10
2018-11-07T08:50:00.258Z,9.20
2018-11-07T08:52:04.497Z,9.20
2018-11-07T08:54:08.852Z,9.30
2018-11-07T08:56:13.100Z,9.30
2018-11-07T08:58:17.410Z,9.40
2018-11-07T09:00:23.050Z,9.40
2018-11-07T09:02:27.235Z,9.40
2018-11-07T09:04:31.457Z,9.50
2018-11-07T09:06:35.746Z,9.60
2018-11-07T09:08:40.194Z,9.60
2018-11-07T09:10:44.483Z,9.60
2018-11-07T09:12:48.662Z,9.70
2018-11-07T09:14:52.909Z,9.70
2018-11-07T09:16:57.141Z,9.80
2018-11-07T09:19:01.369Z,9.80
2018-11-07T09:21:05.668Z,9.90
2018-11-07T09:23:10.224Z,9.90
2018-11-07T09:25:15.333Z,9.90
2018-11-07T09:27:19.657Z,10.00
2018-11-07T09:29:23.839Z,10.10
2018-11-07T09:31:28.136Z,10.10
2018-11-07T09:33:32.345Z,10.10
2018-11-07T09:35:37.492Z,10.20
2018-11-07T09:37:41.915Z,10.30
2018-11-07T09:39:47.204Z,10.30
2018-11-07T09:41:51.357Z,10.50
2018-11-07T09:43:55.967Z,10.50
2018-11-07T09:46:00.284Z,10.50
2018-11-07T09:48:05.413Z,10.70
2018-11-07T09:50:10.336Z,10.70
2018-11-07T09:52:14.697Z,10.80
2018-11-07T09:54:19.057Z,10.80
2018-11-07T09:56:23.388Z,10.90
2018-11-07T09:58:27.908Z,10.90
2018-11-07T10:00:32.192Z,10.90
2018-11-07T10:02:36.427Z,11.00
2018-11-07T10:04:40.992Z,11.00
2018-11-07T10:06:45.308Z,11.00
2018-11-07T10:08:49.478Z,11.10
2018-11-07T10:10:53.700Z,11.20
2018-11-07T10:12:58.851Z,11.20
2018-11-07T10:15:03.616Z,11.20
2018-11-07T10:17:07.836Z,11.30
2018-11-07T10:19:12.042Z,11.30
2018-11-07T10:21:16.297Z,11.30
2018-11-07T10:23:20.575Z,11.30
2018-11-07T10:25:24.799Z,11.40
2018-11-07T10:27:29.656Z,11.50
2018-11-07T10:29:33.852Z,11.50
2018-11-07T10:31:37.829Z,11.60
2018-11-07T10:33:42.145Z,11.70
2018-11-07T10:35:46.409Z,11.70
2018-11-07T10:37:50.743Z,11.80
2018-11-07T10:39:55.301Z,11.70
2018-11-07T10:41:59.637Z,11.70
2018-11-07T10:44:04.013Z,11.70
2018-11-07T10:46:08.315Z,11.80
2018-11-07T10:48:12.798Z,11.90
2018-11-07T10:50:18.065Z,11.90
2018-11-07T10:52:22.290Z,11.90
2018-11-07T10:54:26.543Z,12.00
2018-11-07T10:56:30.762Z,11.90
2018-11-07T10:58:35.041Z,12.00
2018-11-07T11:00:44.687Z,12.00
2018-11-07T11:03:51.702Z,12.10
2018-11-07T11:05:55.963Z,12.10
2018-11-07T11:08:00.260Z,12.20
2018-11-07T11:10:04.875Z,12.20
2018-11-07T11:12:09.290Z,12.20
2018-11-07T11:14:13.518Z,12.20
2018-11-07T11:16:17.774Z,12.20
2018-11-07T11:18:22.037Z,12.30
2018-11-07T11:20:26.269Z,12.30
2018-11-07T11:22:30.597Z,12.40
2018-11-07T11:24:34.869Z,12.50
2018-11-07T11:26:39.224Z,12.50
2018-11-07T11:28:43.562Z,12.50
2018-11-07T11:30:47.798Z,12.60
2018-11-07T11:32:52.145Z,12.70
2018-11-07T11:34:56.786Z,12.60
2018-11-07T11:37:00.949Z,12.70
2018-11-07T11:39:06.824Z,12.70
2018-11-07T11:41:11.131Z,12.80
2018-11-07T11:43:15.530Z,12.70
2018-11-07T11:45:19.810Z,12.80
2018-11-07T11:47:24.009Z,12.80
2018-11-07T11:49:28.272Z,12.90
2018-11-07T11:51:32.756Z,12.90
2018-11-07T11:53:37.078Z,12.90
2018-11-07T11:55:41.317Z,13.00
2018-11-07T11:57:46.173Z,13.00
2018-11-07T11:59:50.624Z,13.10
2018-11-07T12:01:54.631Z,13.20
2018-11-07T12:03:58.864Z,13.20
2018-11-07T12:06:03.100Z,13.30
2018-11-07T12:08:07.413Z,13.40
2018-11-07T12:10:18.129Z,13.50
2018-11-07T12:12:22.546Z,13.60
2018-11-07T12:14:26.740Z,13.60
2018-11-07T12:16:30.933Z,13.60
2018-11-07T12:18:35.270Z,13.70
2018-11-07T12:20:39.663Z,13.80
2018-11-07T12:22:44.010Z,13.90
2018-11-07T12:24:49.091Z,14.00
2018-11-07T12:29:01.618Z,14.00
2018-11-07T12:31:05.894Z,14.10
2018-11-07T12:33:09.880Z,14.20
2018-11-07T12:35:14.307Z,14.20
2018-11-07T12:37:18.283Z,14.40
2018-11-07T12:39:22.308Z,14.60
2018-11-07T12:41:26.277Z,14.80
2018-11-07T12:43:30.405Z,14.90
2018-11-07T12:45:34.428Z,15.20
2018-11-07T12:47:38.794Z,15.20
2018-11-07T12:49:42.926Z,15.30
2018-11-07T12:51:46.845Z,15.60
2018-11-07T12:53:50.853Z,15.60
2018-11-07T12:55:54.899Z,15.80
2018-11-07T12:57:58.976Z,16.40
2018-11-07T13:00:03.025Z,16.20
2018-11-07T13:02:07.040Z,16.10
2018-11-07T13:04:11.031Z,15.90
2018-11-07T13:06:15.137Z,16.10
2018-11-07T13:08:19.421Z,16.00
2018-11-07T13:10:24.302Z,16.10
2018-11-07T13:12:28.550Z,16.30
2018-11-07T13:14:32.790Z,16.70
2018-11-07T13:16:37.311Z,16.50
2018-11-07T13:18:41.670Z,16.70
2018-11-07T13:20:46.003Z,16.40
2018-11-07T13:22:51.519Z,16.50
2018-11-07T13:24:56.785Z,16.60
2018-11-07T13:27:02.276Z,16.90
2018-11-07T13:29:06.577Z,16.90
2018-11-07T13:31:10.912Z,16.90
2018-11-07T13:33:15.125Z,16.80
2018-11-07T13:35:19.940Z,17.10
2018-11-07T13:37:24.357Z,17.50
2018-11-07T13:39:28.583Z,17.50
2018-11-07T13:41:32.838Z,17.30
2018-11-07T13:43:37.137Z,16.90
2018-11-07T13:45:41.354Z,16.80
2018-11-07T13:47:46.784Z,16.70
2018-11-07T13:49:51.017Z,16.50
2018-11-07T13:51:55.201Z,16.50
2018-11-07T13:53:59.534Z,16.90
2018-11-07T13:56:03.787Z,16.80
2018-11-07T13:58:08.016Z,16.80
2018-11-07T14:00:15.076Z,17.20
2018-11-07T14:02:19.268Z,17.60
2018-11-07T14:04:23.464Z,17.60
2018-11-07T14:06:27.688Z,17.60
2018-11-07T14:08:31.924Z,18.00
2018-11-07T14:10:36.137Z,18.30
2018-11-07T14:12:40.706Z,18.10
2018-11-07T14:14:45.116Z,18.30
2018-11-07T14:16:49.415Z,18.40
2018-11-07T14:18:53.662Z,18.00
2018-11-07T14:20:57.941Z,18.50
2018-11-07T14:23:02.132Z,18.50
2018-11-07T14:25:08.687Z,18.30
2018-11-07T14:27:12.956Z,18.20
2018-11-07T14:29:17.333Z,18.60
2018-11-07T14:31:22.186Z,18.60
2018-11-07T14:33:26.736Z,18.10
2018-11-07T14:35:30.996Z,18.10
2018-11-07T14:37:35.214Z,18.20
2018-11-07T14:39:39.436Z,18.10
2018-11-07T14:41:44.582Z,17.80
2018-11-07T14:43:48.929Z,17.40
2018-11-07T14:45:53.169Z,17.20
2018-11-07T14:47:57.428Z,16.90
2018-11-07T14:50:01.703Z,16.60
2018-11-07T14:52:06.200Z,16.40
2018-11-07T14:54:10.450Z,16.10
2018-11-07T14:56:14.717Z,15.80
2018-11-07T14:58:18.898Z,15.60
2018-11-07T15:00:23.187Z,15.40
2018-11-07T15:02:27.502Z,15.10
2018-11-07T15:04:31.756Z,14.90
2018-11-07T15:06:35.966Z,14.90
2018-11-07T15:08:40.594Z,15.00
2018-11-07T15:10:44.814Z,14.90
2018-11-07T15:12:49.066Z,14.70
2018-11-07T15:14:53.322Z,14.50
2018-11-07T15:16:57.631Z,14.40
2018-11-07T15:19:01.887Z,14.40
2018-11-07T15:21:06.490Z,14.40
2018-11-07T15:23:10.718Z,14.30
2018-11-07T15:25:15.935Z,14.20
2018-11-07T15:27:20.168Z,14.20
2018-11-07T15:29:24.458Z,14.10
2018-11-07T15:31:28.636Z,14.00
2018-11-07T15:33:32.911Z,14.00
2018-11-07T15:35:37.109Z,13.90
2018-11-07T15:37:42.367Z,13.90
2018-11-07T15:39:46.574Z,13.80
2018-11-07T15:41:50.805Z,13.70
2018-11-07T15:43:55.063Z,13.60
2018-11-07T15:45:59.332Z,13.50
2018-11-07T15:48:03.626Z,13.40
2018-11-07T15:50:13.103Z,13.30
2018-11-07T15:52:17.356Z,13.20
2018-11-07T15:54:21.549Z,13.10
2018-11-07T15:56:25.907Z,13.00
2018-11-07T15:58:30.166Z,12.90
2018-11-07T16:00:34.368Z,12.90
2018-11-07T16:02:39.146Z,12.90
2018-11-07T16:04:43.428Z,12.90
2018-11-07T16:06:47.670Z,12.80
2018-11-07T16:08:51.884Z,12.80
2018-11-07T16:10:56.415Z,12.80
2018-11-07T16:13:00.769Z,12.70
2018-11-07T16:15:05.332Z,12.70
2018-11-07T16:17:09.596Z,12.60
2018-11-07T16:19:13.902Z,12.60
2018-11-07T16:21:18.243Z,12.60
2018-11-07T16:23:22.590Z,12.50
2018-11-07T16:25:26.808Z,12.40
2018-11-07T16:27:31.089Z,12.50
2018-11-07T16:29:35.328Z,12.50
2018-11-07T16:31:39.625Z,12.40
2018-11-07T16:33:43.907Z,12.40
2018-11-07T16:35:48.200Z,12.30
2018-11-07T16:37:52.540Z,12.40
2018-11-07T16:39:56.781Z,12.30
2018-11-07T16:42:01.025Z,12.20
2018-11-07T16:44:05.487Z,12.20
2018-11-07T16:46:09.771Z,12.20
2018-11-07T16:48:14.032Z,12.20
2018-11-07T16:50:18.828Z,12.20
2018-11-07T16:52:23.109Z,12.20
2018-11-07T16:54:27.334Z,12.20
2018-11-07T16:56:31.609Z,12.20
2018-11-07T16:58:35.846Z,12.20
2018-11-07T17:00:40.041Z,12.20
2018-11-07T17:02:44.991Z,12.20
2018-11-07T17:04:49.302Z,12.00
2018-11-07T17:06:53.532Z,12.00
2018-11-07T17:08:57.865Z,12.00
2018-11-07T17:11:02.149Z,11.90
2018-11-07T17:13:06.492Z,11.90
2018-11-07T17:15:10.764Z,11.80
2018-11-07T17:17:15.032Z,11.80
2018-11-07T17:19:19.294Z,11.70
2018-11-07T17:21:23.518Z,11.60
2018-11-07T17:23:27.846Z,11.70
2018-11-07T17:25:32.065Z,11.60
2018-11-07T17:27:36.285Z,11.60
2018-11-07T17:29:40.525Z,11.60
2018-11-07T17:31:44.885Z,11.60
2018-11-07T17:33:49.105Z,11.60
2018-11-07T17:35:53.360Z,11.50
2018-11-07T17:37:57.597Z,11.40
2018-11-07T17:40:01.871Z,11.50
2018-11-07T17:42:06.622Z,11.50
2018-11-07T17:44:10.977Z,11.40
2018-11-07T17:46:15.212Z,11.30
2018-11-07T17:48:19.647Z,11.30
2018-11-07T17:50:26.544Z,11.40
2018-11-07T17:52:30.822Z,11.30
2018-11-07T17:54:35.059Z,11.50
2018-11-07T17:56:39.371Z,11.30
2018-11-07T17:58:43.649Z,11.40
2018-11-07T18:00:47.990Z,11.40
2018-11-07T18:02:52.253Z,11.50
2018-11-07T18:04:56.488Z,11.50
2018-11-07T18:07:00.737Z,11.50
2018-11-07T18:09:06.509Z,11.50
2018-11-07T18:11:10.752Z,11.50
2018-11-07T18:13:14.991Z,11.60
2018-11-07T18:15:19.162Z,11.70
2018-11-07T18:17:23.537Z,11.70
2018-11-07T18:19:27.792Z,11.70
2018-11-07T18:21:32.253Z,11.70
2018-11-07T18:23:36.509Z,11.80
2018-11-07T18:25:40.733Z,11.80
2018-11-07T18:27:44.928Z,11.80
2018-11-07T18:29:49.160Z,11.90
2018-11-07T18:31:53.468Z,11.80
2018-11-07T18:33:57.858Z,11.90
2018-11-07T18:36:02.182Z,12.00
2018-11-07T18:38:06.657Z,12.00
2018-11-07T18:40:12.601Z,12.00
2018-11-07T18:42:16.766Z,11.90
2018-11-07T18:44:21.254Z,12.00
2018-11-07T18:46:25.600Z,12.00
2018-11-07T18:48:29.882Z,11.90
2018-11-07T18:50:35.264Z,12.00
2018-11-07T18:52:39.517Z,12.10
2018-11-07T18:54:43.755Z,12.10
2018-11-07T18:56:48.067Z,12.10
2018-11-07T18:58:52.424Z,12.10
2018-11-07T19:00:56.597Z,12.00
2018-11-07T19:03:00.923Z,12.00
2018-11-07T19:05:05.404Z,12.10
2018-11-07T19:07:09.661Z,12.10
2018-11-07T19:09:13.992Z,12.00
2018-11-07T19:11:18.353Z,12.00
2018-11-07T19:13:22.638Z,11.90
2018-11-07T19:15:26.850Z,11.90
2018-11-07T19:17:31.100Z,11.80
2018-11-07T19:19:35.356Z,11.80
2018-11-07T19:21:39.545Z,11.90
2018-11-07T19:23:43.799Z,11.90
2018-11-07T19:25:48.106Z,11.90
2018-11-07T19:27:52.435Z,12.00
2018-11-07T19:29:56.665Z,12.10
2018-11-07T19:32:02.223Z,12.10
2018-11-07T19:34:06.539Z,12.20
2018-11-07T19:36:10.815Z,12.20
2018-11-07T19:38:15.105Z,12.20
2018-11-07T19:40:24.183Z,12.30
2018-11-07T19:42:28.308Z,12.30
2018-11-07T19:44:32.555Z,12.30
2018-11-07T19:46:37.142Z,12.30
2018-11-07T19:48:41.366Z,12.20
2018-11-07T19:50:45.665Z,12.30
2018-11-07T19:52:50.609Z,12.20
2018-11-07T19:54:54.965Z,12.20
2018-11-07T19:56:59.215Z,12.20
2018-11-07T19:59:03.561Z,12.30
2018-11-07T20:01:07.836Z,12.30
2018-11-07T20:03:12.109Z,12.20
2018-11-07T20:05:16.450Z,12.20
2018-11-07T20:07:20.726Z,12.20
2018-11-07T20:09:24.974Z,12.20
2018-11-07T20:11:29.210Z,12.10
2018-11-07T20:13:33.397Z,12.10
2018-11-07T20:15:37.589Z,12.00
2018-11-07T20:17:41.861Z,12.00
2018-11-07T20:19:46.065Z,12.00
2018-11-07T20:21:50.771Z,11.90
2018-11-07T20:24:07.704Z,12.00
2018-11-07T20:26:12.770Z,11.90
2018-11-07T20:28:17.157Z,11.90
2018-11-07T20:30:22.186Z,11.90
2018-11-07T20:32:26.465Z,11.80
2018-11-07T20:34:30.754Z,11.80
2018-11-07T20:36:35.053Z,11.80
2018-11-07T20:38:39.277Z,11.80
2018-11-07T20:40:44.181Z,11.80
2018-11-07T20:42:55.558Z,11.80
2018-11-07T20:45:02.551Z,11.80
2018-11-07T20:47:07.835Z,11.70
2018-11-07T20:49:16.211Z,11.80
2018-11-07T20:51:22.324Z,11.80
2018-11-07T20:53:27.026Z,11.80
2018-11-07T20:55:32.317Z,11.80
2018-11-07T20:57:40.157Z,11.80
2018-11-07T20:59:45.791Z,11.80
2018-11-07T21:01:52.959Z,11.70
2018-11-07T21:03:57.225Z,11.60
2018-11-07T21:06:01.750Z,11.60
2018-11-07T21:08:08.352Z,11.70
2018-11-07T21:10:15.144Z,11.60
2018-11-07T21:12:20.796Z,11.60
2018-11-07T21:14:26.465Z,11.60
2018-11-07T21:16:31.254Z,11.60
2018-11-07T21:18:35.672Z,11.60
2018-11-07T21:20:40.179Z,11.60
2018-11-07T21:22:44.664Z,11.60
2018-11-07T21:25:00.443Z,11.60
2018-11-07T21:27:05.718Z,11.50
2018-11-07T21:29:10.904Z,11.50
2018-11-07T21:31:17.209Z,11.50
2018-11-07T21:33:23.973Z,11.50
2018-11-07T21:35:29.001Z,11.60
2018-11-07T21:37:35.090Z,11.60
2018-11-07T21:39:40.618Z,11.70
2018-11-07T21:41:45.731Z,11.70
2018-11-07T21:43:51.310Z,11.70
2018-11-07T21:45:55.872Z,11.70
2018-11-07T21:48:02.935Z,11.60
2018-11-07T21:50:08.547Z,11.60
2018-11-07T21:52:13.322Z,11.60
2018-11-07T21:54:18.505Z,11.60
2018-11-07T21:56:24.165Z,11.60
2018-11-07T21:58:29.423Z,11.60
2018-11-07T22:00:34.576Z,11.60
2018-11-07T22:02:39.242Z,11.50
2018-11-07T22:04:43.493Z,11.50
2018-11-07T22:06:51.804Z,11.50
2018-11-07T22:08:56.800Z,11.50
2018-11-07T22:11:02.327Z,11.50
2018-11-07T22:13:07.131Z,11.50
2018-11-07T22:15:11.373Z,11.50
2018-11-07T22:17:15.619Z,11.50
2018-11-07T22:19:19.968Z,11.50
2018-11-07T22:21:24.210Z,11.50
2018-11-07T22:23:28.808Z,11.50
2018-11-07T22:25:46.322Z,11.50
2018-11-07T22:27:51.775Z,11.60
2018-11-07T22:29:57.107Z,11.50
2018-11-07T22:32:01.837Z,11.50
2018-11-07T22:34:07.561Z,11.50
2018-11-07T22:36:13.954Z,11.60
2018-11-07T22:38:18.679Z,11.60
2018-11-07T22:40:23.028Z,11.60
2018-11-07T22:42:28.087Z,11.60
2018-11-07T22:44:33.340Z,11.50
2018-11-07T22:46:38.221Z,11.60
2018-11-07T22:48:43.757Z,11.50
2018-11-07T22:50:49.335Z,11.50
2018-11-07T22:52:54.136Z,11.50
2018-11-07T22:54:58.881Z,11.40
2018-11-07T22:57:05.465Z,11.50
2018-11-07T22:59:10.078Z,11.50
2018-11-07T23:01:19.550Z,11.50
2018-11-07T23:03:24.961Z,11.40
2018-11-07T23:05:29.812Z,11.40
2018-11-07T23:07:34.034Z,11.40
2018-11-07T23:09:39.772Z,11.40
2018-11-07T23:11:45.713Z,11.50
2018-11-07T23:13:51.386Z,11.50
2018-11-07T23:15:56.438Z,11.50
2018-11-07T23:18:02.559Z,11.50
2018-11-07T23:20:11.623Z,11.50
2018-11-07T23:22:16.250Z,11.50
2018-11-07T23:24:21.423Z,11.40
2018-11-07T23:26:26.499Z,11.40
2018-11-07T23:28:31.584Z,11.40
2018-11-07T23:30:37.651Z,11.40
2018-11-07T23:32:44.117Z,11.40
2018-11-07T23:34:48.492Z,11.40
2018-11-07T23:36:53.737Z,11.50
2018-11-07T23:38:58.401Z,11.50
2018-11-07T23:41:02.815Z,11.50
2018-11-07T23:43:07.039Z,11.60
2018-11-07T23:45:11.400Z,11.60
2018-11-07T23:47:15.659Z,11.60
2018-11-07T23:49:20.012Z,11.60
2018-11-07T23:51:24.298Z,11.70
2018-11-07T23:53:28.589Z,11.70
2018-11-07T23:55:32.825Z,11.60
2018-11-07T23:57:37.014Z,11.60
2018-11-07T23:59:41.256Z,11.60
